sensor_id;sensor_type;location;lat;lon;timestamp;P1;durP1;ratioP1;P2;durP2;ratioP2
80185;SDS011;69904;52.122;5.422;2023-07-31T00:01:19;1.02;;;0.35;;
80185;SDS011;69904;52.122;5.422;2023-07-31T00:03:46;1.13;;;0.50;;
80185;SDS011;69904;52.122;5.422;2023-07-31T00:06:13;2.22;;;0.52;;
80185;SDS011;69904;52.122;5.422;2023-07-31T00:08:40;1.80;;;0.63;;
80185;SDS011;69904;52.122;5.422;2023-07-31T00:11:06;1.25;;;0.40;;
80185;SDS011;69904;52.122;5.422;2023-07-31T00:13:33;1.52;;;0.63;;
80185;SDS011;69904;52.122;5.422;2023-07-31T00:15:59;1.23;;;0.50;;
80185;SDS011;69904;52.122;5.422;2023-07-31T00:18:26;4.68;;;0.80;;
80185;SDS011;69904;52.122;5.422;2023-07-31T00:20:53;2.53;;;0.70;;
80185;SDS011;69904;52.122;5.422;2023-07-31T00:23:19;2.45;;;0.60;;
80185;SDS011;69904;52.122;5.422;2023-07-31T00:25:46;1.50;;;0.70;;
80185;SDS011;69904;52.122;5.422;2023-07-31T00:28:12;2.33;;;1.20;;
80185;SDS011;69904;52.122;5.422;2023-07-31T00:33:06;3.45;;;1.38;;
80185;SDS011;69904;52.122;5.422;2023-07-31T00:35:32;2.40;;;1.20;;
80185;SDS011;69904;52.122;5.422;2023-07-31T00:37:59;5.70;;;1.50;;
80185;SDS011;69904;52.122;5.422;2023-07-31T00:40:26;19.58;;;2.28;;
80185;SDS011;69904;52.122;5.422;2023-07-31T00:42:52;6.35;;;2.08;;
80185;SDS011;69904;52.122;5.422;2023-07-31T00:45:19;6.25;;;1.95;;
80185;SDS011;69904;52.122;5.422;2023-07-31T00:47:49;10.15;;;2.65;;
80185;SDS011;69904;52.122;5.422;2023-07-31T00:50:16;11.55;;;2.55;;
80185;SDS011;69904;52.122;5.422;2023-07-31T00:52:43;12.00;;;2.95;;
80185;SDS011;69904;52.122;5.422;2023-07-31T00:55:10;11.90;;;3.05;;
80185;SDS011;69904;52.122;5.422;2023-07-31T00:57:37;12.07;;;3.30;;
80185;SDS011;69904;52.122;5.422;2023-07-31T01:00:06;10.63;;;2.60;;
80185;SDS011;69904;52.122;5.422;2023-07-31T01:02:34;14.50;;;3.80;;
80185;SDS011;69904;52.122;5.422;2023-07-31T01:05:02;22.13;;;3.60;;
80185;SDS011;69904;52.122;5.422;2023-07-31T01:10:10;15.00;;;3.42;;
80185;SDS011;69904;52.122;5.422;2023-07-31T01:12:44;14.93;;;3.15;;
80185;SDS011;69904;52.122;5.422;2023-07-31T01:15:12;17.35;;;5.15;;
80185;SDS011;69904;52.122;5.422;2023-07-31T01:17:41;11.98;;;2.70;;
80185;SDS011;69904;52.122;5.422;2023-07-31T01:20:10;9.35;;;3.25;;
80185;SDS011;69904;52.122;5.422;2023-07-31T01:30:47;10.98;;;2.25;;
80185;SDS011;69904;52.122;5.422;2023-07-31T01:33:16;8.98;;;2.38;;
80185;SDS011;69904;52.122;5.422;2023-07-31T01:35:43;7.55;;;2.85;;
80185;SDS011;69904;52.122;5.422;2023-07-31T01:38:12;12.15;;;3.20;;
80185;SDS011;69904;52.122;5.422;2023-07-31T01:40:41;11.88;;;3.38;;
80185;SDS011;69904;52.122;5.422;2023-07-31T01:43:08;11.70;;;3.08;;
80185;SDS011;69904;52.122;5.422;2023-07-31T01:48:01;14.40;;;3.53;;
80185;SDS011;69904;52.122;5.422;2023-07-31T01:50:28;12.77;;;3.75;;
80185;SDS011;69904;52.122;5.422;2023-07-31T01:52:55;7.70;;;2.63;;
80185;SDS011;69904;52.122;5.422;2023-07-31T01:55:21;12.43;;;3.47;;
80185;SDS011;69904;52.122;5.422;2023-07-31T01:57:48;13.48;;;3.20;;
80185;SDS011;69904;52.122;5.422;2023-07-31T02:00:15;11.10;;;3.45;;
80185;SDS011;69904;52.122;5.422;2023-07-31T02:05:08;11.32;;;3.40;;
80185;SDS011;69904;52.122;5.422;2023-07-31T02:07:35;13.23;;;3.33;;
80185;SDS011;69904;52.122;5.422;2023-07-31T02:10:02;8.25;;;2.78;;
80185;SDS011;69904;52.122;5.422;2023-07-31T02:12:28;11.05;;;2.78;;
80185;SDS011;69904;52.122;5.422;2023-07-31T02:14:58;7.35;;;2.63;;
80185;SDS011;69904;52.122;5.422;2023-07-31T02:17:24;9.27;;;3.08;;
80185;SDS011;69904;52.122;5.422;2023-07-31T02:19:51;10.75;;;3.35;;
80185;SDS011;69904;52.122;5.422;2023-07-31T02:22:19;10.57;;;2.53;;
80185;SDS011;69904;52.122;5.422;2023-07-31T02:24:46;11.15;;;3.75;;
80185;SDS011;69904;52.122;5.422;2023-07-31T02:27:13;12.88;;;3.38;;
80185;SDS011;69904;52.122;5.422;2023-07-31T02:29:39;9.63;;;3.03;;
80185;SDS011;69904;52.122;5.422;2023-07-31T02:32:06;7.88;;;2.75;;
80185;SDS011;69904;52.122;5.422;2023-07-31T02:36:59;8.50;;;2.20;;
80185;SDS011;69904;52.122;5.422;2023-07-31T02:39:25;11.18;;;2.13;;
80185;SDS011;69904;52.122;5.422;2023-07-31T02:41:52;7.93;;;2.42;;
80185;SDS011;69904;52.122;5.422;2023-07-31T02:44:19;14.20;;;3.55;;
80185;SDS011;69904;52.122;5.422;2023-07-31T02:46:46;12.20;;;2.60;;
80185;SDS011;69904;52.122;5.422;2023-07-31T02:49:13;9.38;;;2.50;;
80185;SDS011;69904;52.122;5.422;2023-07-31T02:51:39;12.23;;;3.08;;
80185;SDS011;69904;52.122;5.422;2023-07-31T02:54:06;14.57;;;3.20;;
80185;SDS011;69904;52.122;5.422;2023-07-31T02:56:32;9.43;;;3.15;;
80185;SDS011;69904;52.122;5.422;2023-07-31T02:58:59;10.57;;;2.97;;
80185;SDS011;69904;52.122;5.422;2023-07-31T03:01:26;9.25;;;2.22;;
80185;SDS011;69904;52.122;5.422;2023-07-31T03:03:53;10.10;;;2.83;;
80185;SDS011;69904;52.122;5.422;2023-07-31T03:06:19;12.75;;;3.00;;
80185;SDS011;69904;52.122;5.422;2023-07-31T03:08:46;12.40;;;2.88;;
80185;SDS011;69904;52.122;5.422;2023-07-31T03:11:13;13.57;;;3.50;;
80185;SDS011;69904;52.122;5.422;2023-07-31T03:13:39;10.35;;;3.65;;
80185;SDS011;69904;52.122;5.422;2023-07-31T03:16:06;13.88;;;3.25;;
80185;SDS011;69904;52.122;5.422;2023-07-31T03:18:32;14.98;;;3.42;;
80185;SDS011;69904;52.122;5.422;2023-07-31T03:20:59;6.80;;;2.97;;
80185;SDS011;69904;52.122;5.422;2023-07-31T03:23:25;14.82;;;3.80;;
80185;SDS011;69904;52.122;5.422;2023-07-31T03:25:56;15.13;;;3.70;;
80185;SDS011;69904;52.122;5.422;2023-07-31T03:28:27;14.65;;;4.05;;
80185;SDS011;69904;52.122;5.422;2023-07-31T03:30:53;14.43;;;3.53;;
80185;SDS011;69904;52.122;5.422;2023-07-31T03:33:20;15.88;;;4.00;;
80185;SDS011;69904;52.122;5.422;2023-07-31T03:35:46;13.15;;;4.03;;
80185;SDS011;69904;52.122;5.422;2023-07-31T03:40:40;12.93;;;3.70;;
80185;SDS011;69904;52.122;5.422;2023-07-31T03:43:06;16.38;;;4.78;;
80185;SDS011;69904;52.122;5.422;2023-07-31T03:45:33;14.88;;;4.15;;
80185;SDS011;69904;52.122;5.422;2023-07-31T03:47:59;13.95;;;3.72;;
80185;SDS011;69904;52.122;5.422;2023-07-31T03:50:26;15.07;;;4.15;;
80185;SDS011;69904;52.122;5.422;2023-07-31T03:52:53;10.88;;;4.20;;
80185;SDS011;69904;52.122;5.422;2023-07-31T03:55:19;10.15;;;3.05;;
80185;SDS011;69904;52.122;5.422;2023-07-31T03:57:46;13.88;;;3.38;;
80185;SDS011;69904;52.122;5.422;2023-07-31T04:00:12;13.10;;;3.67;;
80185;SDS011;69904;52.122;5.422;2023-07-31T04:02:39;10.07;;;3.50;;
80185;SDS011;69904;52.122;5.422;2023-07-31T04:05:06;14.88;;;3.88;;
80185;SDS011;69904;52.122;5.422;2023-07-31T04:07:33;12.07;;;3.58;;
80185;SDS011;69904;52.122;5.422;2023-07-31T04:10:00;11.93;;;3.42;;
80185;SDS011;69904;52.122;5.422;2023-07-31T04:12:26;13.50;;;3.80;;
80185;SDS011;69904;52.122;5.422;2023-07-31T04:14:53;11.07;;;3.35;;
80185;SDS011;69904;52.122;5.422;2023-07-31T04:17:20;11.48;;;3.50;;
80185;SDS011;69904;52.122;5.422;2023-07-31T04:19:46;8.70;;;3.22;;
80185;SDS011;69904;52.122;5.422;2023-07-31T04:22:13;13.13;;;3.17;;
80185;SDS011;69904;52.122;5.422;2023-07-31T04:24:39;16.80;;;4.35;;
80185;SDS011;69904;52.122;5.422;2023-07-31T04:27:06;11.10;;;3.10;;
80185;SDS011;69904;52.122;5.422;2023-07-31T04:29:32;13.65;;;3.65;;
80185;SDS011;69904;52.122;5.422;2023-07-31T04:31:58;11.38;;;3.85;;
80185;SDS011;69904;52.122;5.422;2023-07-31T04:34:25;12.32;;;4.10;;
80185;SDS011;69904;52.122;5.422;2023-07-31T04:36:51;8.73;;;2.95;;
80185;SDS011;69904;52.122;5.422;2023-07-31T04:39:18;8.70;;;2.63;;
80185;SDS011;69904;52.122;5.422;2023-07-31T04:41:44;11.55;;;3.70;;
80185;SDS011;69904;52.122;5.422;2023-07-31T04:44:10;13.60;;;3.88;;
80185;SDS011;69904;52.122;5.422;2023-07-31T04:46:37;11.00;;;3.35;;
80185;SDS011;69904;52.122;5.422;2023-07-31T04:49:04;10.60;;;3.55;;
80185;SDS011;69904;52.122;5.422;2023-07-31T04:51:31;11.05;;;4.65;;
80185;SDS011;69904;52.122;5.422;2023-07-31T04:53:57;8.40;;;2.95;;
80185;SDS011;69904;52.122;5.422;2023-07-31T04:56:23;13.55;;;3.63;;
80185;SDS011;69904;52.122;5.422;2023-07-31T04:58:50;12.43;;;4.22;;
80185;SDS011;69904;52.122;5.422;2023-07-31T05:01:16;10.38;;;3.25;;
80185;SDS011;69904;52.122;5.422;2023-07-31T05:03:43;9.73;;;3.28;;
80185;SDS011;69904;52.122;5.422;2023-07-31T05:06:10;9.75;;;2.42;;
80185;SDS011;69904;52.122;5.422;2023-07-31T05:08:36;8.50;;;3.25;;
80185;SDS011;69904;52.122;5.422;2023-07-31T05:11:02;12.60;;;3.47;;
80185;SDS011;69904;52.122;5.422;2023-07-31T05:13:29;13.15;;;3.58;;
80185;SDS011;69904;52.122;5.422;2023-07-31T05:15:55;9.35;;;3.45;;
80185;SDS011;69904;52.122;5.422;2023-07-31T05:18:22;9.23;;;3.38;;
80185;SDS011;69904;52.122;5.422;2023-07-31T05:20:49;10.60;;;3.83;;
80185;SDS011;69904;52.122;5.422;2023-07-31T05:23:15;13.40;;;3.78;;
80185;SDS011;69904;52.122;5.422;2023-07-31T05:25:42;11.30;;;3.13;;
80185;SDS011;69904;52.122;5.422;2023-07-31T05:28:08;7.85;;;2.97;;
80185;SDS011;69904;52.122;5.422;2023-07-31T05:30:35;7.20;;;2.78;;
80185;SDS011;69904;52.122;5.422;2023-07-31T05:33:01;7.32;;;2.45;;
80185;SDS011;69904;52.122;5.422;2023-07-31T05:35:28;9.50;;;2.47;;
80185;SDS011;69904;52.122;5.422;2023-07-31T05:37:55;5.68;;;2.92;;
80185;SDS011;69904;52.122;5.422;2023-07-31T05:40:22;6.18;;;1.90;;
80185;SDS011;69904;52.122;5.422;2023-07-31T05:42:48;5.25;;;1.88;;
80185;SDS011;69904;52.122;5.422;2023-07-31T05:45:15;6.35;;;1.58;;
80185;SDS011;69904;52.122;5.422;2023-07-31T05:50:08;5.95;;;1.83;;
80185;SDS011;69904;52.122;5.422;2023-07-31T05:55:02;4.20;;;1.70;;
80185;SDS011;69904;52.122;5.422;2023-07-31T05:57:29;6.18;;;2.10;;
80185;SDS011;69904;52.122;5.422;2023-07-31T05:59:55;4.88;;;2.00;;
80185;SDS011;69904;52.122;5.422;2023-07-31T06:02:22;4.60;;;2.10;;
80185;SDS011;69904;52.122;5.422;2023-07-31T06:04:49;4.25;;;1.88;;
80185;SDS011;69904;52.122;5.422;2023-07-31T06:09:42;5.55;;;2.17;;
80185;SDS011;69904;52.122;5.422;2023-07-31T06:12:09;6.68;;;2.35;;
80185;SDS011;69904;52.122;5.422;2023-07-31T06:14:36;6.40;;;2.28;;
80185;SDS011;69904;52.122;5.422;2023-07-31T06:17:02;7.03;;;2.38;;
80185;SDS011;69904;52.122;5.422;2023-07-31T06:19:29;5.25;;;2.10;;
80185;SDS011;69904;52.122;5.422;2023-07-31T06:21:56;4.78;;;2.05;;
80185;SDS011;69904;52.122;5.422;2023-07-31T06:24:22;4.13;;;2.22;;
80185;SDS011;69904;52.122;5.422;2023-07-31T06:26:49;6.18;;;2.58;;
80185;SDS011;69904;52.122;5.422;2023-07-31T06:29:17;5.47;;;2.00;;
80185;SDS011;69904;52.122;5.422;2023-07-31T06:31:43;4.00;;;1.90;;
80185;SDS011;69904;52.122;5.422;2023-07-31T06:36:36;5.38;;;2.17;;
80185;SDS011;69904;52.122;5.422;2023-07-31T06:39:04;4.50;;;1.90;;
80185;SDS011;69904;52.122;5.422;2023-07-31T06:41:30;6.45;;;2.17;;
80185;SDS011;69904;52.122;5.422;2023-07-31T06:43:57;3.90;;;1.77;;
80185;SDS011;69904;52.122;5.422;2023-07-31T06:46:24;3.58;;;1.80;;
80185;SDS011;69904;52.122;5.422;2023-07-31T06:48:50;4.35;;;1.90;;
80185;SDS011;69904;52.122;5.422;2023-07-31T06:51:17;3.97;;;2.03;;
80185;SDS011;69904;52.122;5.422;2023-07-31T06:53:43;4.45;;;1.77;;
80185;SDS011;69904;52.122;5.422;2023-07-31T06:56:11;4.28;;;1.65;;
80185;SDS011;69904;52.122;5.422;2023-07-31T07:01:04;4.78;;;1.17;;
80185;SDS011;69904;52.122;5.422;2023-07-31T07:03:31;2.60;;;1.50;;
80185;SDS011;69904;52.122;5.422;2023-07-31T07:05:58;2.72;;;1.63;;
80185;SDS011;69904;52.122;5.422;2023-07-31T07:08:25;3.65;;;1.90;;
80185;SDS011;69904;52.122;5.422;2023-07-31T07:10:52;4.47;;;1.80;;
80185;SDS011;69904;52.122;5.422;2023-07-31T07:13:21;3.88;;;1.77;;
80185;SDS011;69904;52.122;5.422;2023-07-31T07:15:48;6.00;;;1.95;;
80185;SDS011;69904;52.122;5.422;2023-07-31T07:18:15;6.63;;;2.00;;
80185;SDS011;69904;52.122;5.422;2023-07-31T07:23:19;4.93;;;1.85;;
80185;SDS011;69904;52.122;5.422;2023-07-31T07:25:46;3.28;;;1.95;;
80185;SDS011;69904;52.122;5.422;2023-07-31T07:28:14;3.95;;;2.20;;
80185;SDS011;69904;52.122;5.422;2023-07-31T07:30:40;4.75;;;1.98;;
80185;SDS011;69904;52.122;5.422;2023-07-31T07:33:07;4.25;;;1.73;;
80185;SDS011;69904;52.122;5.422;2023-07-31T07:38:02;4.50;;;2.10;;
80185;SDS011;69904;52.122;5.422;2023-07-31T07:40:29;5.35;;;1.90;;
80185;SDS011;69904;52.122;5.422;2023-07-31T07:42:56;4.05;;;1.80;;
80185;SDS011;69904;52.122;5.422;2023-07-31T07:45:22;6.38;;;2.50;;
80185;SDS011;69904;52.122;5.422;2023-07-31T07:47:49;5.75;;;2.25;;
80185;SDS011;69904;52.122;5.422;2023-07-31T07:50:15;3.13;;;1.90;;
80185;SDS011;69904;52.122;5.422;2023-07-31T07:52:42;4.10;;;2.05;;
80185;SDS011;69904;52.122;5.422;2023-07-31T07:55:09;4.07;;;1.65;;
80185;SDS011;69904;52.122;5.422;2023-07-31T07:57:36;4.00;;;2.10;;
80185;SDS011;69904;52.122;5.422;2023-07-31T08:00:02;3.40;;;1.60;;
80185;SDS011;69904;52.122;5.422;2023-07-31T08:02:29;3.92;;;1.60;;
80185;SDS011;69904;52.122;5.422;2023-07-31T08:04:56;4.43;;;2.20;;
80185;SDS011;69904;52.122;5.422;2023-07-31T08:07:22;3.10;;;1.73;;
80185;SDS011;69904;52.122;5.422;2023-07-31T08:09:49;2.72;;;1.65;;
80185;SDS011;69904;52.122;5.422;2023-07-31T08:12:15;3.97;;;1.42;;
80185;SDS011;69904;52.122;5.422;2023-07-31T08:14:42;2.72;;;1.38;;
80185;SDS011;69904;52.122;5.422;2023-07-31T08:17:08;2.60;;;1.55;;
80185;SDS011;69904;52.122;5.422;2023-07-31T08:19:35;2.88;;;1.05;;
80185;SDS011;69904;52.122;5.422;2023-07-31T08:22:02;4.13;;;1.30;;
80185;SDS011;69904;52.122;5.422;2023-07-31T08:24:28;1.83;;;0.85;;
80185;SDS011;69904;52.122;5.422;2023-07-31T08:26:55;2.38;;;1.13;;
80185;SDS011;69904;52.122;5.422;2023-07-31T08:29:21;1.85;;;1.13;;
80185;SDS011;69904;52.122;5.422;2023-07-31T08:31:48;2.67;;;1.10;;
80185;SDS011;69904;52.122;5.422;2023-07-31T08:34:14;1.70;;;0.93;;
80185;SDS011;69904;52.122;5.422;2023-07-31T08:36:41;4.28;;;1.25;;
80185;SDS011;69904;52.122;5.422;2023-07-31T08:41:37;1.50;;;0.90;;
80185;SDS011;69904;52.122;5.422;2023-07-31T08:44:07;3.08;;;1.00;;
80185;SDS011;69904;52.122;5.422;2023-07-31T08:46:34;2.17;;;0.90;;
80185;SDS011;69904;52.122;5.422;2023-07-31T08:49:02;1.55;;;0.73;;
80185;SDS011;69904;52.122;5.422;2023-07-31T08:51:33;1.58;;;0.60;;
80185;SDS011;69904;52.122;5.422;2023-07-31T08:54:01;2.05;;;0.95;;
80185;SDS011;69904;52.122;5.422;2023-07-31T08:56:31;1.45;;;0.65;;
80185;SDS011;69904;52.122;5.422;2023-07-31T08:58:59;2.10;;;0.98;;
80185;SDS011;69904;52.122;5.422;2023-07-31T09:01:29;1.88;;;1.02;;
80185;SDS011;69904;52.122;5.422;2023-07-31T09:03:58;1.98;;;0.82;;
80185;SDS011;69904;52.122;5.422;2023-07-31T09:06:27;1.23;;;0.52;;
80185;SDS011;69904;52.122;5.422;2023-07-31T09:08:55;2.88;;;0.93;;
80185;SDS011;69904;52.122;5.422;2023-07-31T09:11:22;1.50;;;0.95;;
80185;SDS011;69904;52.122;5.422;2023-07-31T09:13:50;2.47;;;1.20;;
80185;SDS011;69904;52.122;5.422;2023-07-31T09:16:18;1.65;;;0.93;;
80185;SDS011;69904;52.122;5.422;2023-07-31T09:18:54;1.63;;;1.00;;
80185;SDS011;69904;52.122;5.422;2023-07-31T09:21:23;4.07;;;1.33;;
80185;SDS011;69904;52.122;5.422;2023-07-31T09:23:50;1.45;;;0.85;;
80185;SDS011;69904;52.122;5.422;2023-07-31T09:26:30;2.90;;;1.20;;
80185;SDS011;69904;52.122;5.422;2023-07-31T09:29:04;2.25;;;0.93;;
80185;SDS011;69904;52.122;5.422;2023-07-31T09:31:31;2.90;;;1.30;;
80185;SDS011;69904;52.122;5.422;2023-07-31T09:33:59;2.83;;;1.20;;
80185;SDS011;69904;52.122;5.422;2023-07-31T09:36:28;4.00;;;1.15;;
80185;SDS011;69904;52.122;5.422;2023-07-31T09:39:01;2.35;;;1.30;;
80185;SDS011;69904;52.122;5.422;2023-07-31T09:41:29;1.90;;;1.30;;
80185;SDS011;69904;52.122;5.422;2023-07-31T09:43:56;3.75;;;1.40;;
80185;SDS011;69904;52.122;5.422;2023-07-31T09:46:23;2.55;;;1.10;;
80185;SDS011;69904;52.122;5.422;2023-07-31T09:48:54;3.85;;;1.50;;
80185;SDS011;69904;52.122;5.422;2023-07-31T09:51:32;3.58;;;1.50;;
80185;SDS011;69904;52.122;5.422;2023-07-31T09:53:58;1.90;;;0.90;;
80185;SDS011;69904;52.122;5.422;2023-07-31T09:56:26;2.15;;;1.08;;
80185;SDS011;69904;52.122;5.422;2023-07-31T09:58:53;2.78;;;1.40;;
80185;SDS011;69904;52.122;5.422;2023-07-31T10:01:20;4.60;;;1.30;;
80185;SDS011;69904;52.122;5.422;2023-07-31T10:03:47;3.22;;;0.80;;
80185;SDS011;69904;52.122;5.422;2023-07-31T10:06:14;1.98;;;1.00;;
80185;SDS011;69904;52.122;5.422;2023-07-31T10:08:44;2.10;;;1.23;;
80185;SDS011;69904;52.122;5.422;2023-07-31T10:11:15;3.30;;;1.58;;
80185;SDS011;69904;52.122;5.422;2023-07-31T10:13:43;2.13;;;1.10;;
80185;SDS011;69904;52.122;5.422;2023-07-31T10:16:10;3.53;;;1.52;;
80185;SDS011;69904;52.122;5.422;2023-07-31T10:18:38;2.55;;;1.80;;
80185;SDS011;69904;52.122;5.422;2023-07-31T10:21:06;3.88;;;2.00;;
80185;SDS011;69904;52.122;5.422;2023-07-31T10:25:59;4.40;;;2.10;;
80185;SDS011;69904;52.122;5.422;2023-07-31T10:28:27;4.13;;;2.00;;
80185;SDS011;69904;52.122;5.422;2023-07-31T10:30:55;5.18;;;2.08;;
80185;SDS011;69904;52.122;5.422;2023-07-31T10:35:49;5.47;;;2.50;;
80185;SDS011;69904;52.122;5.422;2023-07-31T10:38:15;4.93;;;2.72;;
80185;SDS011;69904;52.122;5.422;2023-07-31T10:43:08;3.75;;;2.38;;
80185;SDS011;69904;52.122;5.422;2023-07-31T10:48:16;2.95;;;1.90;;
80185;SDS011;69904;52.122;5.422;2023-07-31T10:50:47;5.68;;;2.88;;
80185;SDS011;69904;52.122;5.422;2023-07-31T10:53:31;3.47;;;2.30;;
80185;SDS011;69904;52.122;5.422;2023-07-31T10:56:02;5.40;;;2.40;;
80185;SDS011;69904;52.122;5.422;2023-07-31T10:58:30;4.47;;;2.20;;
80185;SDS011;69904;52.122;5.422;2023-07-31T11:01:02;3.55;;;2.17;;
80185;SDS011;69904;52.122;5.422;2023-07-31T11:06:13;3.95;;;1.90;;
80185;SDS011;69904;52.122;5.422;2023-07-31T11:11:13;2.75;;;1.73;;
80185;SDS011;69904;52.122;5.422;2023-07-31T11:16:09;2.20;;;1.35;;
80185;SDS011;69904;52.122;5.422;2023-07-31T11:18:38;3.47;;;1.60;;
80185;SDS011;69904;52.122;5.422;2023-07-31T11:21:05;1.98;;;0.95;;
80185;SDS011;69904;52.122;5.422;2023-07-31T11:23:32;2.20;;;1.30;;
80185;SDS011;69904;52.122;5.422;2023-07-31T11:25:59;3.10;;;1.20;;
80185;SDS011;69904;52.122;5.422;2023-07-31T11:28:26;1.55;;;1.10;;
80185;SDS011;69904;52.122;5.422;2023-07-31T11:30:58;1.83;;;0.95;;
80185;SDS011;69904;52.122;5.422;2023-07-31T11:33:25;3.97;;;1.00;;
80185;SDS011;69904;52.122;5.422;2023-07-31T11:35:52;1.73;;;1.00;;
80185;SDS011;69904;52.122;5.422;2023-07-31T11:38:28;1.65;;;0.85;;
80185;SDS011;69904;52.122;5.422;2023-07-31T11:40:57;1.80;;;1.08;;
80185;SDS011;69904;52.122;5.422;2023-07-31T11:43:31;2.00;;;0.98;;
80185;SDS011;69904;52.122;5.422;2023-07-31T11:45:59;2.35;;;1.05;;
80185;SDS011;69904;52.122;5.422;2023-07-31T11:48:30;2.38;;;1.17;;
80185;SDS011;69904;52.122;5.422;2023-07-31T11:51:01;3.00;;;1.67;;
80185;SDS011;69904;52.122;5.422;2023-07-31T11:56:09;2.75;;;1.50;;
80185;SDS011;69904;52.122;5.422;2023-07-31T11:58:38;3.90;;;1.92;;
80185;SDS011;69904;52.122;5.422;2023-07-31T12:01:05;3.47;;;2.00;;
80185;SDS011;69904;52.122;5.422;2023-07-31T12:03:32;3.38;;;1.60;;
80185;SDS011;69904;52.122;5.422;2023-07-31T12:06:00;3.80;;;2.10;;
80185;SDS011;69904;52.122;5.422;2023-07-31T12:10:54;2.58;;;1.35;;
80185;SDS011;69904;52.122;5.422;2023-07-31T12:13:27;5.55;;;1.88;;
80185;SDS011;69904;52.122;5.422;2023-07-31T12:15:55;5.00;;;2.33;;
80185;SDS011;69904;52.122;5.422;2023-07-31T12:18:24;2.33;;;1.65;;
80185;SDS011;69904;52.122;5.422;2023-07-31T12:20:56;2.60;;;1.60;;
80185;SDS011;69904;52.122;5.422;2023-07-31T12:23:25;3.28;;;1.80;;
80185;SDS011;69904;52.122;5.422;2023-07-31T12:26:02;3.50;;;1.80;;
80185;SDS011;69904;52.122;5.422;2023-07-31T12:28:30;2.00;;;1.30;;
80185;SDS011;69904;52.122;5.422;2023-07-31T12:31:01;3.85;;;1.70;;
80185;SDS011;69904;52.122;5.422;2023-07-31T12:33:31;2.00;;;1.17;;
80185;SDS011;69904;52.122;5.422;2023-07-31T12:36:00;3.20;;;1.55;;
80185;SDS011;69904;52.122;5.422;2023-07-31T12:38:28;2.58;;;1.42;;
80185;SDS011;69904;52.122;5.422;2023-07-31T12:40:55;3.80;;;1.20;;
80185;SDS011;69904;52.122;5.422;2023-07-31T12:43:21;3.42;;;1.55;;
80185;SDS011;69904;52.122;5.422;2023-07-31T12:45:48;2.53;;;1.75;;
80185;SDS011;69904;52.122;5.422;2023-07-31T12:48:15;2.55;;;1.58;;
80185;SDS011;69904;52.122;5.422;2023-07-31T12:50:41;2.83;;;1.90;;
80185;SDS011;69904;52.122;5.422;2023-07-31T12:53:08;3.85;;;2.05;;
80185;SDS011;69904;52.122;5.422;2023-07-31T12:55:34;3.92;;;2.30;;
80185;SDS011;69904;52.122;5.422;2023-07-31T12:58:03;2.90;;;1.90;;
80185;SDS011;69904;52.122;5.422;2023-07-31T13:00:29;4.53;;;2.03;;
80185;SDS011;69904;52.122;5.422;2023-07-31T13:05:22;3.50;;;2.00;;
80185;SDS011;69904;52.122;5.422;2023-07-31T13:07:49;3.40;;;1.83;;
80185;SDS011;69904;52.122;5.422;2023-07-31T13:10:18;4.20;;;2.05;;
80185;SDS011;69904;52.122;5.422;2023-07-31T13:12:45;4.30;;;2.40;;
80185;SDS011;69904;52.122;5.422;2023-07-31T13:15:11;4.18;;;1.98;;
80185;SDS011;69904;52.122;5.422;2023-07-31T13:17:38;4.20;;;2.03;;
80185;SDS011;69904;52.122;5.422;2023-07-31T13:20:05;2.97;;;1.92;;
80185;SDS011;69904;52.122;5.422;2023-07-31T13:22:32;4.95;;;2.22;;
80185;SDS011;69904;52.122;5.422;2023-07-31T13:24:58;2.97;;;2.13;;
80185;SDS011;69904;52.122;5.422;2023-07-31T13:27:25;5.22;;;2.30;;
80185;SDS011;69904;52.122;5.422;2023-07-31T13:29:52;5.00;;;3.10;;
80185;SDS011;69904;52.122;5.422;2023-07-31T13:32:18;3.58;;;1.95;;
80185;SDS011;69904;52.122;5.422;2023-07-31T13:34:46;3.00;;;1.80;;
80185;SDS011;69904;52.122;5.422;2023-07-31T13:37:13;2.53;;;1.60;;
80185;SDS011;69904;52.122;5.422;2023-07-31T13:39:40;3.42;;;1.50;;
80185;SDS011;69904;52.122;5.422;2023-07-31T13:42:08;4.18;;;1.15;;
80185;SDS011;69904;52.122;5.422;2023-07-31T13:44:35;2.70;;;1.17;;
80185;SDS011;69904;52.122;5.422;2023-07-31T13:49:28;2.03;;;1.00;;
80185;SDS011;69904;52.122;5.422;2023-07-31T13:51:56;1.42;;;0.80;;
80185;SDS011;69904;52.122;5.422;2023-07-31T13:54:24;1.73;;;0.90;;
80185;SDS011;69904;52.122;5.422;2023-07-31T13:56:56;2.22;;;1.17;;
80185;SDS011;69904;52.122;5.422;2023-07-31T13:59:23;2.17;;;1.30;;
80185;SDS011;69904;52.122;5.422;2023-07-31T14:04:16;2.20;;;1.05;;
80185;SDS011;69904;52.122;5.422;2023-07-31T14:06:44;2.22;;;1.15;;
80185;SDS011;69904;52.122;5.422;2023-07-31T14:11:37;1.70;;;1.02;;
80185;SDS011;69904;52.122;5.422;2023-07-31T14:14:08;2.40;;;1.00;;
80185;SDS011;69904;52.122;5.422;2023-07-31T14:16:35;2.35;;;1.38;;
80185;SDS011;69904;52.122;5.422;2023-07-31T14:19:02;3.78;;;2.10;;
80185;SDS011;69904;52.122;5.422;2023-07-31T14:21:29;5.07;;;3.00;;
80185;SDS011;69904;52.122;5.422;2023-07-31T14:23:55;6.13;;;3.20;;
80185;SDS011;69904;52.122;5.422;2023-07-31T14:26:22;4.68;;;3.13;;
80185;SDS011;69904;52.122;5.422;2023-07-31T14:28:49;7.32;;;3.97;;
80185;SDS011;69904;52.122;5.422;2023-07-31T14:31:16;5.13;;;3.42;;
80185;SDS011;69904;52.122;5.422;2023-07-31T14:33:42;6.97;;;3.42;;
80185;SDS011;69904;52.122;5.422;2023-07-31T14:36:09;6.93;;;3.47;;
80185;SDS011;69904;52.122;5.422;2023-07-31T14:38:36;5.20;;;3.13;;
80185;SDS011;69904;52.122;5.422;2023-07-31T14:41:02;9.48;;;3.50;;
80185;SDS011;69904;52.122;5.422;2023-07-31T14:45:55;5.80;;;3.10;;
80185;SDS011;69904;52.122;5.422;2023-07-31T14:48:26;6.43;;;4.38;;
80185;SDS011;69904;52.122;5.422;2023-07-31T14:50:53;5.47;;;3.58;;
80185;SDS011;69904;52.122;5.422;2023-07-31T14:53:20;4.82;;;2.80;;
80185;SDS011;69904;52.122;5.422;2023-07-31T14:55:47;5.35;;;3.08;;
80185;SDS011;69904;52.122;5.422;2023-07-31T15:00:40;5.75;;;3.58;;
80185;SDS011;69904;52.122;5.422;2023-07-31T15:05:34;4.63;;;2.30;;
80185;SDS011;69904;52.122;5.422;2023-07-31T15:08:01;2.95;;;2.08;;
80185;SDS011;69904;52.122;5.422;2023-07-31T15:12:54;5.15;;;2.40;;
80185;SDS011;69904;52.122;5.422;2023-07-31T15:15:21;3.70;;;1.83;;
80185;SDS011;69904;52.122;5.422;2023-07-31T15:20:14;4.75;;;2.47;;
80185;SDS011;69904;52.122;5.422;2023-07-31T15:22:41;3.50;;;2.33;;
80185;SDS011;69904;52.122;5.422;2023-07-31T15:25:08;3.58;;;2.38;;
80185;SDS011;69904;52.122;5.422;2023-07-31T15:30:01;6.30;;;2.60;;
80185;SDS011;69904;52.122;5.422;2023-07-31T15:32:30;4.32;;;2.63;;
80185;SDS011;69904;52.122;5.422;2023-07-31T15:34:57;3.13;;;2.17;;
80185;SDS011;69904;52.122;5.422;2023-07-31T15:39:50;4.25;;;1.90;;
80185;SDS011;69904;52.122;5.422;2023-07-31T15:42:16;4.55;;;2.58;;
80185;SDS011;69904;52.122;5.422;2023-07-31T15:44:43;2.53;;;1.60;;
80185;SDS011;69904;52.122;5.422;2023-07-31T15:49:36;3.85;;;1.85;;
80185;SDS011;69904;52.122;5.422;2023-07-31T15:52:03;3.13;;;1.40;;
80185;SDS011;69904;52.122;5.422;2023-07-31T15:54:29;5.45;;;1.48;;
80185;SDS011;69904;52.122;5.422;2023-07-31T15:56:56;2.38;;;1.33;;
80185;SDS011;69904;52.122;5.422;2023-07-31T15:59:22;2.90;;;1.08;;
80185;SDS011;69904;52.122;5.422;2023-07-31T16:01:49;2.10;;;1.10;;
80185;SDS011;69904;52.122;5.422;2023-07-31T16:06:42;2.72;;;1.00;;
80185;SDS011;69904;52.122;5.422;2023-07-31T16:09:09;1.98;;;0.77;;
80185;SDS011;69904;52.122;5.422;2023-07-31T16:11:36;2.30;;;0.82;;
80185;SDS011;69904;52.122;5.422;2023-07-31T16:14:03;2.92;;;0.70;;
80185;SDS011;69904;52.122;5.422;2023-07-31T16:16:29;2.30;;;0.98;;
80185;SDS011;69904;52.122;5.422;2023-07-31T16:18:56;1.45;;;0.93;;
80185;SDS011;69904;52.122;5.422;2023-07-31T16:21:22;1.38;;;0.57;;
80185;SDS011;69904;52.122;5.422;2023-07-31T16:23:49;2.83;;;0.80;;